createdAt,value
2023-10-21T00:01:38.880Z,11.20
2023-10-21T00:04:05.943Z,11.30
2023-10-21T00:06:32.727Z,11.40
2023-10-21T00:08:59.515Z,9.50
2023-10-21T00:13:53.364Z,11.20
2023-10-21T00:16:20.116Z,10.70
2023-10-21T00:18:47.614Z,10.70
2023-10-21T00:21:14.646Z,9.70
2023-10-21T00:23:41.887Z,10.20
2023-10-21T00:26:08.597Z,10.50
2023-10-21T00:28:36.929Z,9.30
2023-10-21T00:31:04.835Z,10.10
2023-10-21T00:33:31.901Z,10.20
2023-10-21T00:35:59.286Z,9.30
2023-10-21T00:38:26.378Z,10.00
2023-10-21T00:43:33.578Z,9.40
2023-10-21T00:46:20.809Z,13.20
2023-10-21T00:48:48.808Z,10.60
2023-10-21T00:51:16.588Z,11.60
2023-10-21T00:53:44.196Z,11.10
2023-10-21T00:56:11.449Z,10.90
2023-10-21T01:01:07.420Z,12.80
2023-10-21T01:03:36.916Z,10.50
2023-10-21T01:06:05.122Z,9.20
2023-10-21T01:08:42.955Z,11.80
2023-10-21T01:11:11.055Z,11.30
2023-10-21T01:13:38.349Z,9.90
2023-10-21T01:16:05.384Z,13.20
2023-10-21T01:18:34.718Z,11.00
2023-10-21T01:21:04.947Z,10.20
2023-10-21T01:23:34.397Z,9.40
2023-10-21T01:26:02.479Z,9.60
2023-10-21T01:28:29.893Z,12.40
2023-10-21T01:30:56.970Z,10.70
2023-10-21T01:33:24.021Z,10.30
2023-10-21T01:35:51.378Z,10.10
2023-10-21T01:38:21.179Z,9.60
2023-10-21T01:40:50.451Z,11.10
2023-10-21T01:43:17.496Z,10.40
2023-10-21T01:45:44.253Z,11.70
2023-10-21T01:48:11.593Z,9.80
2023-10-21T01:50:38.744Z,9.70
2023-10-21T01:55:34.374Z,8.60
2023-10-21T01:58:01.320Z,10.50
2023-10-21T02:00:29.048Z,9.10
2023-10-21T02:02:57.534Z,10.10
2023-10-21T02:05:25.944Z,11.30
2023-10-21T02:07:53.371Z,10.20
2023-10-21T02:10:20.234Z,8.90
2023-10-21T02:12:47.336Z,9.60
2023-10-21T02:15:17.174Z,9.60
2023-10-21T02:17:46.259Z,7.10
2023-10-21T02:20:15.109Z,7.90
2023-10-21T02:22:43.008Z,11.00
2023-10-21T02:25:15.468Z,10.20
2023-10-21T02:27:43.256Z,9.20
2023-10-21T02:32:46.940Z,8.30
2023-10-21T02:35:14.419Z,9.70
2023-10-21T02:37:42.127Z,8.20
2023-10-21T02:40:09.879Z,11.30
2023-10-21T02:42:38.359Z,12.10
2023-10-21T02:45:06.306Z,9.50
2023-10-21T02:47:33.270Z,8.70
2023-10-21T02:50:00.437Z,8.90
2023-10-21T02:52:27.797Z,7.90
2023-10-21T02:54:54.527Z,7.80
2023-10-21T02:57:21.410Z,8.60
2023-10-21T03:02:14.899Z,9.20
2023-10-21T03:09:35.191Z,7.40
2023-10-21T03:12:02.140Z,8.00
2023-10-21T03:14:28.857Z,8.40
2023-10-21T03:16:55.630Z,7.30
2023-10-21T03:19:22.334Z,8.90
2023-10-21T03:21:48.968Z,8.70
2023-10-21T03:24:15.737Z,9.40
2023-10-21T03:26:42.342Z,9.10
2023-10-21T03:31:39.446Z,8.80
2023-10-21T03:34:06.448Z,9.00
2023-10-21T03:36:33.190Z,9.80
2023-10-21T03:39:00.061Z,8.50
2023-10-21T03:41:27.441Z,7.40
2023-10-21T03:43:54.120Z,10.20
2023-10-21T03:46:21.928Z,9.40
2023-10-21T03:48:48.784Z,12.80
2023-10-21T03:53:44.149Z,10.20
2023-10-21T03:56:11.327Z,10.00
2023-10-21T04:01:05.937Z,11.30
2023-10-21T04:03:34.160Z,10.80
2023-10-21T04:06:01.295Z,10.70
2023-10-21T04:08:30.319Z,9.70
2023-10-21T04:10:56.966Z,9.70
2023-10-21T04:13:23.702Z,8.70
2023-10-21T04:15:50.789Z,12.70
2023-10-21T04:18:18.525Z,9.10
2023-10-21T04:20:46.043Z,11.40
2023-10-21T04:23:13.323Z,12.00
2023-10-21T04:25:40.309Z,11.70
2023-10-21T04:28:07.921Z,10.20
2023-10-21T04:30:35.743Z,13.50
2023-10-21T04:33:03.232Z,9.80
2023-10-21T04:35:30.099Z,9.80
2023-10-21T04:37:59.907Z,11.00
2023-10-21T04:40:26.648Z,10.00
2023-10-21T04:42:53.285Z,9.10
2023-10-21T04:45:20.041Z,10.30
2023-10-21T04:50:14.782Z,9.30
2023-10-21T04:52:41.723Z,10.70
2023-10-21T04:57:36.201Z,13.30
2023-10-21T05:00:04.500Z,11.50
2023-10-21T05:02:31.249Z,13.00
2023-10-21T05:04:58.038Z,10.70
2023-10-21T05:07:24.677Z,13.30
2023-10-21T05:09:51.452Z,10.10
2023-10-21T05:12:20.054Z,13.80
2023-10-21T05:14:46.679Z,11.90
2023-10-21T05:17:13.378Z,11.40
2023-10-21T05:19:40.113Z,12.10
2023-10-21T05:22:06.895Z,11.90
2023-10-21T05:29:27.695Z,10.70
2023-10-21T05:31:55.200Z,11.30
2023-10-21T05:34:22.224Z,14.10
2023-10-21T05:36:49.347Z,11.00
2023-10-21T05:39:16.360Z,11.40
2023-10-21T05:44:10.390Z,13.00
2023-10-21T05:49:04.639Z,12.80
2023-10-21T05:51:31.677Z,11.80
2023-10-21T05:53:58.757Z,13.00
2023-10-21T05:56:26.152Z,10.70
2023-10-21T05:58:53.160Z,12.80
2023-10-21T06:01:20.187Z,14.10
2023-10-21T06:03:47.878Z,13.10
2023-10-21T06:06:14.914Z,14.30
2023-10-21T06:11:11.464Z,12.70
2023-10-21T06:13:38.944Z,12.40
2023-10-21T06:16:06.514Z,11.20
2023-10-21T06:18:33.285Z,16.80
2023-10-21T06:23:26.831Z,11.30
2023-10-21T06:25:53.560Z,10.60
2023-10-21T06:28:20.521Z,9.40
2023-10-21T06:30:47.504Z,12.10
2023-10-21T06:35:41.470Z,12.10
2023-10-21T06:38:08.477Z,10.00
2023-10-21T06:40:49.838Z,13.40
2023-10-21T06:43:22.412Z,12.30
2023-10-21T06:45:49.386Z,10.30
2023-10-21T06:48:16.353Z,9.80
2023-10-21T06:50:43.223Z,10.60
2023-10-21T06:53:10.738Z,11.30
2023-10-21T06:55:45.226Z,14.60
2023-10-21T06:58:12.860Z,11.30
2023-10-21T07:00:39.694Z,12.60
2023-10-21T07:03:06.904Z,11.70
2023-10-21T07:05:35.818Z,11.20
2023-10-21T07:08:02.678Z,13.60
2023-10-21T07:10:30.134Z,14.40
2023-10-21T07:12:57.518Z,13.40
2023-10-21T07:15:25.748Z,10.80
2023-10-21T07:17:53.586Z,12.90
2023-10-21T07:20:20.987Z,12.20
2023-10-21T07:22:50.200Z,11.20
2023-10-21T07:25:19.278Z,14.30
2023-10-21T07:27:46.847Z,10.40
2023-10-21T07:30:15.536Z,10.70
2023-10-21T07:32:42.270Z,12.80
2023-10-21T07:35:09.815Z,10.70
2023-10-21T07:37:36.778Z,12.10
2023-10-21T07:40:06.344Z,12.50
2023-10-21T07:42:33.674Z,11.10
2023-10-21T07:45:00.620Z,12.50
2023-10-21T07:49:56.238Z,13.00
2023-10-21T07:52:23.543Z,14.10
2023-10-21T07:54:50.470Z,14.50
2023-10-21T07:59:45.363Z,11.10
2023-10-21T08:02:12.362Z,13.40
2023-10-21T08:04:40.074Z,14.80
2023-10-21T08:07:07.166Z,10.60
2023-10-21T08:09:33.810Z,12.30
2023-10-21T08:12:01.093Z,12.10
2023-10-21T08:14:30.977Z,11.10
2023-10-21T08:16:58.796Z,12.60
2023-10-21T08:19:25.643Z,11.50
2023-10-21T08:21:52.391Z,13.10
2023-10-21T08:24:19.182Z,12.10
2023-10-21T08:29:12.613Z,9.40
2023-10-21T08:34:10.448Z,11.60
2023-10-21T08:36:37.346Z,11.90
2023-10-21T08:39:07.785Z,10.00
2023-10-21T08:41:39.731Z,11.00
2023-10-21T08:44:08.656Z,11.60
2023-10-21T08:46:35.995Z,13.50
2023-10-21T08:49:04.503Z,9.90
2023-10-21T08:51:33.879Z,9.50
2023-10-21T08:54:04.691Z,12.80
2023-10-21T08:56:33.515Z,10.90
2023-10-21T08:59:01.863Z,10.20
2023-10-21T09:01:29.090Z,12.70
2023-10-21T09:04:00.716Z,12.90
2023-10-21T09:06:27.840Z,11.00
2023-10-21T09:08:54.701Z,11.20
2023-10-21T09:11:30.708Z,11.00
2023-10-21T09:13:59.596Z,10.60
2023-10-21T09:16:32.483Z,12.70
2023-10-21T09:19:05.722Z,13.70
2023-10-21T09:21:38.771Z,14.50
2023-10-21T09:24:07.436Z,12.60
2023-10-21T09:26:41.852Z,13.70
2023-10-21T09:29:15.465Z,12.60
2023-10-21T09:31:52.322Z,11.70
2023-10-21T09:34:45.657Z,11.60
2023-10-21T09:37:12.754Z,11.60
2023-10-21T09:39:40.084Z,13.10
2023-10-21T09:42:07.479Z,11.60
2023-10-21T09:44:38.915Z,12.30
2023-10-21T09:47:07.298Z,12.40
2023-10-21T09:49:38.947Z,12.50
2023-10-21T09:52:11.228Z,13.60
2023-10-21T09:54:44.721Z,11.90
2023-10-21T09:57:13.045Z,11.00
2023-10-21T09:59:41.453Z,12.00
2023-10-21T10:02:10.009Z,12.30
2023-10-21T10:04:37.379Z,13.00
2023-10-21T10:07:09.021Z,15.90
2023-10-21T10:09:41.904Z,13.60
2023-10-21T10:12:16.995Z,15.00
2023-10-21T10:14:44.037Z,12.50
2023-10-21T10:17:11.077Z,11.70
2023-10-21T10:19:43.147Z,13.40
2023-10-21T10:22:33.271Z,11.40
2023-10-21T10:25:15.803Z,12.50
2023-10-21T10:27:43.312Z,12.80
2023-10-21T10:30:22.757Z,12.90
2023-10-21T10:32:53.727Z,14.70
2023-10-21T10:35:31.779Z,10.90
2023-10-21T10:38:01.727Z,14.10
2023-10-21T10:40:41.490Z,14.30
2023-10-21T10:43:11.769Z,11.40
2023-10-21T10:45:39.250Z,11.40
2023-10-21T10:48:08.053Z,15.20
2023-10-21T10:50:38.759Z,14.60
2023-10-21T10:53:16.969Z,12.30
2023-10-21T10:55:48.068Z,11.00
2023-10-21T10:58:16.168Z,12.60
2023-10-21T11:00:43.126Z,13.50
2023-10-21T11:05:38.229Z,11.50
2023-10-21T11:08:09.783Z,13.10
2023-10-21T11:10:36.523Z,12.40
2023-10-21T11:15:33.403Z,13.10
2023-10-21T11:18:01.734Z,11.30
2023-10-21T11:20:28.715Z,13.20
2023-10-21T11:25:22.314Z,11.40
2023-10-21T11:30:16.772Z,11.50
2023-10-21T11:32:43.427Z,10.90
2023-10-21T11:37:39.194Z,14.90
2023-10-21T11:40:10.508Z,12.60
2023-10-21T11:42:40.475Z,12.80
2023-10-21T11:45:09.826Z,11.60
2023-10-21T11:47:38.149Z,15.30
2023-10-21T11:50:09.687Z,15.20
2023-10-21T11:52:38.987Z,13.40
2023-10-21T11:55:12.131Z,15.60
2023-10-21T11:57:58.645Z,16.80
2023-10-21T12:00:45.670Z,14.60
2023-10-21T12:03:31.572Z,14.50
2023-10-21T12:06:07.533Z,15.40
2023-10-21T12:09:06.434Z,13.30
2023-10-21T12:11:52.289Z,15.80
2023-10-21T12:14:38.084Z,15.70
2023-10-21T12:17:27.755Z,17.80
2023-10-21T12:19:57.375Z,17.90
2023-10-21T12:22:42.834Z,17.70
2023-10-21T12:25:28.213Z,18.00
2023-10-21T12:27:57.825Z,17.30
2023-10-21T12:30:45.217Z,15.80
2023-10-21T12:33:16.327Z,16.60
2023-10-21T12:36:11.734Z,17.70
2023-10-21T12:38:42.055Z,15.40
2023-10-21T12:41:38.060Z,15.40
2023-10-21T12:46:41.094Z,14.70
2023-10-21T12:49:26.055Z,16.10
2023-10-21T12:51:56.609Z,21.20
2023-10-21T12:54:23.811Z,18.80
2023-10-21T12:56:51.275Z,21.60
2023-10-21T12:59:20.072Z,19.00
2023-10-21T13:01:47.317Z,17.50
2023-10-21T13:04:14.176Z,15.70
2023-10-21T13:06:43.190Z,16.40
2023-10-21T13:09:30.084Z,15.50
2023-10-21T13:11:57.313Z,21.30
2023-10-21T13:14:27.925Z,19.20
2023-10-21T13:16:54.747Z,20.60
2023-10-21T13:19:26.696Z,21.60
2023-10-21T13:21:55.227Z,22.30
2023-10-21T13:24:22.102Z,18.60
2023-10-21T13:26:48.999Z,20.30
2023-10-21T13:29:15.657Z,23.60
2023-10-21T13:34:09.330Z,26.40
2023-10-21T13:36:36.323Z,20.70
2023-10-21T13:39:15.856Z,21.80
2023-10-21T13:41:43.058Z,20.00
2023-10-21T13:44:09.801Z,20.60
2023-10-21T13:49:06.338Z,22.20
2023-10-21T13:51:33.002Z,22.60
2023-10-21T13:53:59.797Z,22.20
2023-10-21T13:56:26.600Z,24.00
2023-10-21T13:58:55.838Z,22.50
2023-10-21T14:01:23.898Z,22.50
2023-10-21T14:06:20.401Z,23.50
2023-10-21T14:08:47.378Z,21.30
2023-10-21T14:11:14.180Z,23.80
2023-10-21T14:16:10.301Z,18.10
2023-10-21T14:18:36.988Z,22.10
2023-10-21T14:21:04.759Z,18.10
2023-10-21T14:23:31.561Z,19.50
2023-10-21T14:25:59.945Z,18.80
2023-10-21T14:28:29.089Z,21.00
2023-10-21T14:30:58.194Z,21.50
2023-10-21T14:33:30.357Z,20.60
2023-10-21T14:35:59.178Z,21.80
2023-10-21T14:38:28.822Z,19.90
2023-10-21T14:40:59.042Z,20.70
2023-10-21T14:43:26.668Z,25.20
2023-10-21T14:45:53.894Z,22.10
2023-10-21T14:48:20.900Z,23.50
2023-10-21T14:50:52.017Z,24.60
2023-10-21T14:53:19.179Z,20.40
2023-10-21T14:58:18.087Z,15.80
2023-10-21T15:00:45.276Z,18.30
2023-10-21T15:03:20.198Z,20.30
2023-10-21T15:05:50.204Z,18.60
2023-10-21T15:08:21.311Z,16.40
2023-10-21T15:10:49.276Z,22.50
2023-10-21T15:13:16.242Z,15.20
2023-10-21T15:18:10.867Z,25.90
2023-10-21T15:20:37.602Z,22.00
2023-10-21T15:23:04.745Z,28.30
2023-10-21T15:27:58.692Z,20.30
2023-10-21T15:32:53.229Z,18.50
2023-10-21T15:35:20.264Z,17.90
2023-10-21T15:37:47.960Z,19.90
2023-10-21T15:40:17.216Z,22.60
2023-10-21T15:42:45.086Z,21.00
2023-10-21T15:45:15.017Z,21.60
2023-10-21T15:47:42.966Z,19.20
2023-10-21T15:50:10.797Z,22.10
2023-10-21T15:52:38.506Z,68.90
2023-10-21T15:55:06.348Z,41.80
2023-10-21T15:57:33.621Z,50.80
2023-10-21T16:00:03.596Z,41.40
2023-10-21T16:02:37.868Z,49.30
2023-10-21T16:05:05.780Z,54.70
2023-10-21T16:07:50.312Z,47.30
2023-10-21T16:10:20.055Z,54.20
2023-10-21T16:15:13.890Z,52.10
2023-10-21T16:17:41.235Z,60.30
2023-10-21T16:20:09.156Z,59.30
2023-10-21T16:22:37.459Z,46.40
2023-10-21T16:25:04.775Z,48.20
2023-10-21T16:27:31.425Z,54.00
2023-10-21T16:29:58.274Z,50.30
2023-10-21T16:32:26.013Z,52.80
2023-10-21T16:34:53.050Z,52.20
2023-10-21T16:37:19.709Z,50.90
2023-10-21T16:39:46.560Z,45.00
2023-10-21T16:44:40.434Z,44.60
2023-10-21T16:47:07.151Z,41.60
2023-10-21T16:49:33.757Z,51.40
2023-10-21T16:52:00.552Z,46.60
2023-10-21T16:54:27.924Z,44.60
2023-10-21T16:56:55.829Z,51.40
2023-10-21T16:59:22.535Z,49.70
2023-10-21T17:01:49.586Z,47.10
2023-10-21T17:04:16.373Z,42.70
2023-10-21T17:06:43.188Z,38.80
2023-10-21T17:11:37.320Z,41.10
2023-10-21T17:14:04.159Z,40.20
2023-10-21T17:18:58.982Z,30.50
2023-10-21T17:21:25.995Z,41.30
2023-10-21T17:23:54.091Z,39.80
2023-10-21T17:26:22.158Z,34.30
2023-10-21T17:28:49.120Z,23.30
2023-10-21T17:33:50.338Z,28.40
2023-10-21T17:36:18.542Z,33.60
2023-10-21T17:38:45.385Z,29.50
2023-10-21T17:41:12.373Z,30.10
2023-10-21T17:46:06.018Z,38.50
2023-10-21T17:48:33.758Z,40.50
2023-10-21T17:51:00.842Z,35.30
2023-10-21T17:53:28.503Z,41.10
2023-10-21T17:55:55.750Z,38.90
2023-10-21T17:58:22.684Z,29.70
2023-10-21T18:03:17.168Z,37.00
2023-10-21T18:05:45.259Z,41.70
2023-10-21T18:08:12.658Z,46.70
2023-10-21T18:10:39.353Z,49.60
2023-10-21T18:13:06.090Z,50.70
2023-10-21T18:15:32.900Z,46.50
2023-10-21T18:20:28.620Z,49.80
2023-10-21T18:22:57.062Z,47.30
2023-10-21T18:25:23.728Z,45.70
2023-10-21T18:27:50.611Z,50.60
2023-10-21T18:30:18.326Z,45.40
2023-10-21T18:32:47.053Z,53.80
2023-10-21T18:35:14.228Z,57.10
2023-10-21T18:37:42.196Z,74.60
2023-10-21T18:40:09.354Z,69.50
2023-10-21T18:42:36.741Z,87.30
2023-10-21T18:45:05.592Z,104.70
2023-10-21T18:47:33.387Z,90.90
2023-10-21T18:50:00.107Z,98.50
2023-10-21T18:54:53.940Z,71.40
2023-10-21T18:57:21.035Z,54.70
2023-10-21T18:59:48.617Z,55.80
2023-10-21T19:02:15.838Z,62.10
2023-10-21T19:04:44.864Z,60.70
2023-10-21T19:07:15.568Z,50.80
2023-10-21T19:09:43.097Z,51.10
2023-10-21T19:12:09.972Z,54.10
2023-10-21T19:17:05.542Z,70.80
2023-10-21T19:19:34.249Z,77.00
2023-10-21T19:22:01.139Z,113.60
2023-10-21T19:24:28.639Z,79.10
2023-10-21T19:26:56.188Z,80.50
2023-10-21T19:29:24.054Z,84.60
2023-10-21T19:31:52.995Z,100.50
2023-10-21T19:34:20.458Z,125.80
2023-10-21T19:36:47.629Z,86.40
2023-10-21T19:39:17.217Z,81.10
2023-10-21T19:41:44.685Z,92.00
2023-10-21T19:44:25.096Z,69.20
2023-10-21T19:46:55.186Z,78.00
2023-10-21T19:49:24.179Z,70.20
2023-10-21T19:51:51.870Z,71.40
2023-10-21T19:54:19.327Z,60.40
2023-10-21T19:56:46.536Z,61.50
2023-10-21T19:59:15.684Z,54.10
2023-10-21T20:01:42.745Z,45.60
2023-10-21T20:04:11.523Z,49.40
2023-10-21T20:06:38.756Z,48.90
2023-10-21T20:09:06.456Z,47.50
2023-10-21T20:11:33.711Z,50.50
2023-10-21T20:14:01.003Z,49.50
2023-10-21T20:16:28.353Z,54.80
2023-10-21T20:18:55.641Z,54.90
2023-10-21T20:21:22.891Z,45.90
2023-10-21T20:23:49.783Z,50.50
2023-10-21T20:26:16.700Z,53.50
2023-10-21T20:28:44.170Z,49.00
2023-10-21T20:31:12.337Z,53.50
2023-10-21T20:33:39.576Z,54.70
2023-10-21T20:36:10.067Z,61.20
2023-10-21T20:38:37.064Z,59.10
2023-10-21T20:41:12.738Z,75.50
2023-10-21T20:43:42.520Z,67.40
2023-10-21T20:46:09.714Z,64.60
2023-10-21T20:56:20.080Z,42.80
2023-10-21T20:58:48.897Z,37.80
2023-10-21T21:01:26.657Z,41.70
2023-10-21T21:04:05.688Z,43.00
2023-10-21T21:06:34.092Z,39.90
2023-10-21T21:09:02.169Z,48.80
2023-10-21T21:11:30.314Z,41.00
2023-10-21T21:13:59.980Z,41.70
2023-10-21T21:16:28.735Z,37.90
2023-10-21T21:18:56.826Z,48.00
2023-10-21T21:21:26.045Z,52.00
2023-10-21T21:23:54.472Z,38.30
2023-10-21T21:26:22.528Z,45.50
2023-10-21T21:28:50.699Z,43.20
2023-10-21T21:31:18.875Z,38.40
2023-10-21T21:33:47.031Z,34.90
2023-10-21T21:36:15.266Z,35.10
2023-10-21T21:38:43.396Z,37.60
2023-10-21T21:41:17.231Z,32.60
2023-10-21T21:43:46.061Z,36.40
2023-10-21T21:46:21.488Z,33.20
2023-10-21T21:48:50.311Z,30.50
2023-10-21T21:51:18.703Z,30.00
2023-10-21T21:53:46.879Z,32.00
2023-10-21T21:56:16.119Z,32.20
2023-10-21T21:58:44.360Z,30.40
2023-10-21T22:01:12.839Z,30.80
2023-10-21T22:03:43.319Z,37.10
2023-10-21T22:06:13.713Z,31.60
2023-10-21T22:08:41.963Z,36.60
2023-10-21T22:11:10.034Z,37.70
2023-10-21T22:13:38.935Z,44.20
2023-10-21T22:16:10.865Z,34.20
2023-10-21T22:18:39.843Z,34.00
2023-10-21T22:21:10.926Z,38.20
2023-10-21T22:23:54.406Z,47.80
2023-10-21T22:26:29.875Z,40.30
2023-10-21T22:29:00.548Z,48.10
2023-10-21T22:31:28.763Z,43.90
2023-10-21T22:33:57.083Z,41.50
2023-10-21T22:36:25.175Z,37.60
2023-10-21T22:38:53.291Z,37.40
2023-10-21T22:41:21.503Z,31.70
2023-10-21T22:43:49.592Z,30.10
2023-10-21T22:46:17.723Z,31.10
2023-10-21T22:48:48.248Z,28.70
2023-10-21T22:51:18.598Z,29.20
2023-10-21T22:53:47.005Z,27.10
2023-10-21T22:56:15.051Z,28.90
2023-10-21T22:58:43.673Z,28.30
2023-10-21T23:01:12.563Z,31.40
2023-10-21T23:03:42.333Z,31.00
2023-10-21T23:06:10.725Z,32.40
2023-10-21T23:08:39.494Z,31.50
2023-10-21T23:11:10.424Z,29.40
2023-10-21T23:13:38.914Z,25.90
2023-10-21T23:16:07.642Z,30.90
2023-10-21T23:18:38.954Z,27.80
2023-10-21T23:21:07.982Z,28.40
2023-10-21T23:23:36.301Z,27.60
2023-10-21T23:26:04.693Z,30.10
2023-10-21T23:28:33.203Z,25.30
2023-10-21T23:31:01.756Z,33.20
2023-10-21T23:33:29.928Z,31.30
2023-10-21T23:36:07.741Z,26.10
2023-10-21T23:38:36.311Z,33.20
2023-10-21T23:41:09.026Z,28.90
2023-10-21T23:43:37.173Z,28.30
2023-10-21T23:46:07.258Z,29.20
2023-10-21T23:48:35.645Z,26.90
2023-10-21T23:51:03.945Z,27.60
2023-10-21T23:53:32.708Z,26.70
2023-10-21T23:56:01.107Z,24.10
2023-10-21T23:58:29.850Z,26.10
